Terminal Aerodrome Forecast
Issued by NWS Pueblo, CO

Home | Current Version | Previous Version | Text Only | Print | Product List | Glossary On
Versions: 1 2 3 4 5 6 7 8 9 10 11 12 13 14 15 16 17 18 19 20 21 22 23 24 25 26 27 28 29 30
000
FTUS45 KPUB 041730
TAFCOS
TAF
KCOS 041730Z 0418/0518 15008KT P6SM SCT100 BKN150
     FM042000 17012KT P6SM SCT100 BKN150
     FM042200 18012KT P6SM VCTS SCT080CB BKN150
      TEMPO 0422/0424 VRB15G30KT 5SM -TSRA BKN060CB
     FM050000 02006KT P6SM VCTS BKN080CB
     FM050300 01006KT P6SM SCT100 BKN150=

USA.gov is the U.S. government's official web portal to all federal, state and local government web resources and services.